createdAt,value
2023-01-29T00:02:59.418Z,1.22
2023-01-29T00:07:06.770Z,1.36
2023-01-29T00:11:20.675Z,1.28
2023-01-29T00:15:22.043Z,1.24
2023-01-29T00:19:34.064Z,1.21
2023-01-29T00:23:43.451Z,1.09
2023-01-29T00:27:44.469Z,0.93
2023-01-29T00:31:51.198Z,1.20
2023-01-29T00:35:52.231Z,0.83
2023-01-29T00:40:05.993Z,0.77
2023-01-29T00:44:32.728Z,0.93
2023-01-29T00:48:36.317Z,0.91
2023-01-29T00:52:48.169Z,0.96
2023-01-29T00:56:52.495Z,1.20
2023-01-29T01:00:58.333Z,1.40
2023-01-29T01:04:55.452Z,1.42
2023-01-29T01:09:21.879Z,0.76
2023-01-29T01:13:32.667Z,0.54
2023-01-29T01:17:35.169Z,0.47
2023-01-29T01:21:35.312Z,0.28
2023-01-29T01:25:39.232Z,0.41
2023-01-29T01:29:52.715Z,0.52
2023-01-29T01:34:00.570Z,0.05
2023-01-29T01:38:00.875Z,0.62
2023-01-29T01:42:04.851Z,0.36
2023-01-29T01:46:13.650Z,0.44
2023-01-29T01:50:19.444Z,0.04
2023-01-29T01:54:25.285Z,0.28
2023-01-29T01:58:32.574Z,0.25
2023-01-29T02:02:52.511Z,0.15
2023-01-29T02:07:15.957Z,0.25
2023-01-29T02:11:28.691Z,0.28
2023-01-29T02:15:29.807Z,0.29
2023-01-29T02:19:46.277Z,0.09
2023-01-29T02:24:22.229Z,0.29
2023-01-29T02:28:41.011Z,0.36
2023-01-29T02:32:54.363Z,0.29
2023-01-29T02:37:14.554Z,0.21
2023-01-29T02:41:23.644Z,0.21
2023-01-29T02:45:35.666Z,0.20
2023-01-29T02:49:51.515Z,0.15
2023-01-29T02:54:05.911Z,-0.09
2023-01-29T02:58:16.298Z,0.16
2023-01-29T03:03:18.237Z,0.17
2023-01-29T03:12:42.850Z,0.17
2023-01-29T03:17:25.466Z,0.19
2023-01-29T03:38:20.886Z,0.21
2023-01-29T03:43:13.419Z,0.20
2023-01-29T03:48:46.136Z,0.17
2023-01-29T03:58:57.169Z,0.15
2023-01-29T04:25:35.781Z,0.15
2023-01-29T04:39:09.645Z,0.14
2023-01-29T04:48:03.411Z,-0.09
2023-01-29T04:53:23.365Z,0.11
2023-01-29T05:04:16.659Z,0.07
2023-01-29T06:25:02.344Z,0.41
2023-01-29T06:36:26.720Z,0.45
2023-01-29T06:41:48.003Z,0.48
2023-01-29T06:52:47.907Z,0.51
2023-01-29T07:03:58.220Z,0.46
2023-01-29T07:19:01.627Z,1.24
2023-01-29T07:24:04.525Z,1.30
2023-01-29T07:28:45.189Z,1.27
2023-01-29T07:33:14.075Z,1.70
2023-01-29T07:37:53.041Z,1.55
2023-01-29T07:41:50.024Z,1.36
2023-01-29T07:46:38.461Z,1.18
2023-01-29T07:51:29.765Z,1.03
2023-01-29T08:00:54.734Z,0.75
2023-01-29T08:06:02.688Z,0.78
2023-01-29T08:15:13.112Z,1.16
2023-01-29T08:19:26.341Z,1.11
2023-01-29T08:24:41.754Z,1.18
2023-01-29T08:34:27.113Z,0.89
2023-01-29T09:12:31.096Z,2.05
2023-01-29T09:15:02.307Z,1.92
2023-01-29T11:23:27.043Z,3.44
2023-01-29T13:37:52.216Z,3.98
2023-01-29T13:42:42.656Z,4.13
2023-01-29T13:47:03.973Z,4.30
2023-01-29T13:51:23.514Z,4.43
2023-01-29T13:55:53.188Z,4.55
2023-01-29T14:00:08.764Z,4.56
2023-01-29T14:04:31.408Z,4.55
2023-01-29T14:08:48.125Z,4.59
2023-01-29T14:13:39.239Z,4.60
2023-01-29T14:17:41.854Z,4.84
2023-01-29T14:21:46.453Z,4.82
2023-01-29T14:25:54.490Z,4.51
2023-01-29T14:30:16.725Z,4.17
2023-01-29T14:34:27.985Z,3.74
2023-01-29T14:38:36.256Z,3.78
2023-01-29T14:43:13.963Z,3.74
2023-01-29T14:47:42.458Z,3.43
2023-01-29T14:51:57.937Z,2.99
2023-01-29T14:56:09.031Z,2.54
2023-01-29T15:00:31.091Z,2.36
2023-01-29T15:04:41.648Z,2.18
2023-01-29T15:08:48.435Z,2.08
2023-01-29T15:12:53.069Z,1.90
2023-01-29T15:17:23.206Z,1.75
2023-01-29T15:21:30.819Z,1.87
2023-01-29T15:25:53.679Z,2.02
2023-01-29T15:30:21.348Z,2.26
2023-01-29T15:34:25.040Z,2.27
2023-01-29T15:38:33.814Z,2.21
2023-01-29T15:42:48.868Z,2.07
2023-01-29T15:46:55.026Z,1.93
2023-01-29T15:50:57.996Z,2.01
2023-01-29T15:55:21.115Z,1.91
2023-01-29T15:59:28.675Z,2.00
2023-01-29T16:03:35.091Z,2.05
2023-01-29T16:07:39.729Z,2.20
2023-01-29T16:11:46.207Z,2.27
2023-01-29T16:16:15.604Z,2.27
2023-01-29T16:20:48.837Z,2.35
2023-01-29T16:31:27.789Z,2.59
2023-01-29T16:35:55.378Z,2.70
2023-01-29T16:40:07.025Z,2.33
2023-01-29T16:44:39.584Z,2.32
2023-01-29T16:48:51.883Z,2.44
2023-01-29T16:53:14.745Z,2.20
2023-01-29T16:57:20.404Z,2.66
2023-01-29T17:01:21.669Z,2.46
2023-01-29T17:05:31.378Z,2.27
2023-01-29T17:09:37.497Z,2.06
2023-01-29T17:13:58.301Z,1.52
2023-01-29T17:18:01.812Z,1.89
2023-01-29T17:22:14.876Z,1.87
2023-01-29T17:26:22.863Z,1.73
2023-01-29T17:30:39.916Z,1.85
2023-01-29T17:34:53.728Z,1.98
2023-01-29T17:38:58.362Z,1.94
2023-01-29T17:43:12.730Z,1.86
2023-01-29T17:47:17.674Z,1.82
2023-01-29T17:51:24.936Z,1.84
2023-01-29T17:55:47.525Z,1.85
2023-01-29T17:59:55.754Z,1.95
2023-01-29T18:04:01.027Z,1.93
2023-01-29T18:08:10.753Z,1.89
2023-01-29T18:12:22.263Z,1.99
2023-01-29T18:16:37.096Z,2.23
2023-01-29T18:20:51.725Z,2.38
2023-01-29T18:25:00.018Z,3.03
2023-01-29T18:29:01.133Z,3.18
2023-01-29T18:33:09.686Z,2.81
2023-01-29T18:37:20.785Z,2.43
2023-01-29T18:41:21.967Z,2.63
2023-01-29T18:45:26.151Z,2.89
2023-01-29T18:49:32.750Z,2.96
2023-01-29T18:53:33.674Z,2.70
2023-01-29T18:58:28.590Z,2.21
2023-01-29T19:02:00.834Z,2.24
2023-01-29T19:06:07.494Z,2.47
2023-01-29T19:10:17.020Z,2.43
2023-01-29T19:14:21.846Z,2.38
2023-01-29T19:18:28.843Z,2.38
2023-01-29T19:22:42.188Z,2.45
2023-01-29T19:27:05.669Z,2.51
2023-01-29T19:31:29.023Z,2.52
2023-01-29T19:35:34.203Z,2.54
2023-01-29T19:39:43.760Z,2.55
2023-01-29T19:44:03.126Z,2.40
2023-01-29T19:48:22.227Z,1.97
2023-01-29T19:52:53.026Z,2.02
2023-01-29T19:57:13.030Z,2.21
2023-01-29T20:01:22.687Z,2.03
2023-01-29T20:05:30.741Z,1.97
2023-01-29T20:09:33.501Z,1.86
2023-01-29T20:19:20.874Z,2.33
2023-01-29T20:23:37.068Z,2.47
2023-01-29T20:27:46.256Z,2.50
2023-01-29T20:32:04.507Z,2.31
2023-01-29T20:36:31.723Z,2.17
2023-01-29T20:40:36.481Z,2.13
2023-01-29T20:44:41.841Z,2.15
2023-01-29T20:48:59.676Z,2.05
2023-01-29T20:53:09.548Z,1.96
2023-01-29T20:57:20.660Z,1.88
2023-01-29T21:01:24.233Z,1.58
2023-01-29T21:05:48.942Z,1.79
2023-01-29T21:09:55.047Z,1.74
2023-01-29T21:14:06.863Z,1.50
2023-01-29T21:18:17.238Z,1.47
2023-01-29T21:22:22.123Z,1.32
2023-01-29T21:26:27.129Z,1.31
2023-01-29T21:30:33.150Z,1.13
2023-01-29T21:34:47.904Z,1.10
2023-01-29T21:39:19.171Z,0.99
2023-01-29T21:43:28.117Z,1.01
2023-01-29T21:47:46.868Z,0.79
2023-01-29T21:51:51.600Z,0.69
2023-01-29T21:56:16.620Z,0.49
2023-01-29T22:00:21.049Z,0.46
2023-01-29T22:04:22.305Z,0.40
2023-01-29T22:08:29.703Z,0.13
2023-01-29T22:12:36.902Z,0.43
2023-01-29T22:16:40.941Z,0.37
2023-01-29T22:20:57.035Z,0.42
2023-01-29T22:25:02.083Z,0.45
2023-01-29T22:29:10.958Z,0.44
2023-01-29T22:33:21.421Z,0.36
2023-01-29T22:37:28.065Z,0.52
2023-01-29T22:41:46.320Z,0.56
2023-01-29T22:45:52.399Z,0.69
2023-01-29T22:49:57.439Z,0.63
2023-01-29T22:54:01.573Z,0.51
2023-01-29T22:58:06.189Z,0.46
2023-01-29T23:02:10.728Z,0.51
2023-01-29T23:06:13.721Z,0.34
2023-01-29T23:10:20.345Z,0.48
2023-01-29T23:14:23.195Z,0.23
2023-01-29T23:18:30.905Z,0.27
2023-01-29T23:22:35.808Z,0.28
2023-01-29T23:26:54.105Z,0.12
2023-01-29T23:31:12.820Z,0.11
2023-01-29T23:35:38.604Z,0.10
2023-01-29T23:39:41.422Z,0.10
2023-01-29T23:43:47.038Z,0.14
2023-01-29T23:47:48.101Z,0.19
2023-01-29T23:51:54.485Z,0.06
2023-01-29T23:56:01.834Z,0.07
